KOZS

Camdenton Memorial-Lake Regional Airport

Camdenton, Missouri, USA
METAR KOZS 150055Z AUTO 18003KT 10SM SCT033 SCT048 25/19 A2991 RMK AO2
Observed Flight Rules
Aug-15 @ 00:55 UTC (9 minutes ago) Visual Flight Rules
Wind Visibility Clouds
180° at 3 knots 10 miles
  • Scattered at 3,300' AGL
  • Scattered at 4,800' AGL
Temperatures Readings
Current 25°C / 77°F
Dewpoint 19°C / 66°F
Humidity 69%
Altimeter 29.91" Hg
Pressure 1013 hPa
Elevation 324
METAR KOZS 150055Z AUTO 18003KT 10SM SCT033 SCT048 25/19 A2991 RMK AO2
Observed Flight Rules
Aug-15 @ 00:55 UTC
(9 minutes ago)
VFR
Wind Visibility
180° at 3 knots 10 miles
Clouds
  • Scattered at 3,300' AGL
  • Scattered at 4,800' AGL
Temperature Dewpoint
25°C / 77°F 19°C / 66°F
Humidity Altimeter Pressure
69% 29.91" Hg 1013 hPa